sensor_id;sensor_type;location;lat;lon;timestamp;P1;durP1;ratioP1;P2;durP2;ratioP2
70369;SDS011;57790;51.356;-2.906;2023-04-25T00:00:28;8.97;;;2.20;;
70369;SDS011;57790;51.356;-2.906;2023-04-25T00:03:29;8.27;;;2.00;;
70369;SDS011;57790;51.356;-2.906;2023-04-25T00:06:29;8.00;;;1.90;;
70369;SDS011;57790;51.356;-2.906;2023-04-25T00:09:31;8.40;;;1.90;;
70369;SDS011;57790;51.356;-2.906;2023-04-25T00:12:32;9.52;;;1.92;;
70369;SDS011;57790;51.356;-2.906;2023-04-25T00:15:33;6.35;;;1.70;;
70369;SDS011;57790;51.356;-2.906;2023-04-25T00:18:35;9.23;;;1.93;;
70369;SDS011;57790;51.356;-2.906;2023-04-25T00:21:36;7.63;;;1.67;;
70369;SDS011;57790;51.356;-2.906;2023-04-25T00:24:40;6.60;;;1.87;;
70369;SDS011;57790;51.356;-2.906;2023-04-25T00:27:40;5.82;;;1.70;;
70369;SDS011;57790;51.356;-2.906;2023-04-25T00:30:42;7.90;;;2.07;;
70369;SDS011;57790;51.356;-2.906;2023-04-25T00:33:42;10.60;;;1.90;;
70369;SDS011;57790;51.356;-2.906;2023-04-25T00:36:43;7.47;;;1.83;;
70369;SDS011;57790;51.356;-2.906;2023-04-25T00:39:43;10.73;;;1.80;;
70369;SDS011;57790;51.356;-2.906;2023-04-25T00:42:44;8.20;;;1.80;;
70369;SDS011;57790;51.356;-2.906;2023-04-25T00:45:47;8.10;;;1.63;;
70369;SDS011;57790;51.356;-2.906;2023-04-25T00:48:48;8.07;;;1.80;;
70369;SDS011;57790;51.356;-2.906;2023-04-25T00:51:48;6.72;;;1.73;;
70369;SDS011;57790;51.356;-2.906;2023-04-25T00:54:49;9.13;;;1.80;;
70369;SDS011;57790;51.356;-2.906;2023-04-25T00:57:49;9.83;;;1.80;;
70369;SDS011;57790;51.356;-2.906;2023-04-25T01:00:50;8.90;;;1.90;;
70369;SDS011;57790;51.356;-2.906;2023-04-25T01:03:54;7.95;;;1.73;;
70369;SDS011;57790;51.356;-2.906;2023-04-25T01:06:56;8.82;;;1.70;;
70369;SDS011;57790;51.356;-2.906;2023-04-25T01:09:58;8.27;;;1.52;;
70369;SDS011;57790;51.356;-2.906;2023-04-25T01:12:58;7.70;;;1.90;;
70369;SDS011;57790;51.356;-2.906;2023-04-25T01:15:59;8.23;;;2.07;;
70369;SDS011;57790;51.356;-2.906;2023-04-25T01:19:00;6.32;;;1.67;;
70369;SDS011;57790;51.356;-2.906;2023-04-25T01:22:01;6.93;;;1.98;;
70369;SDS011;57790;51.356;-2.906;2023-04-25T01:25:02;10.07;;;2.00;;
70369;SDS011;57790;51.356;-2.906;2023-04-25T01:28:03;8.98;;;1.77;;
70369;SDS011;57790;51.356;-2.906;2023-04-25T01:31:03;9.40;;;1.90;;
70369;SDS011;57790;51.356;-2.906;2023-04-25T01:34:05;9.65;;;2.17;;
70369;SDS011;57790;51.356;-2.906;2023-04-25T01:37:06;7.67;;;2.23;;
70369;SDS011;57790;51.356;-2.906;2023-04-25T01:40:07;9.57;;;2.20;;
70369;SDS011;57790;51.356;-2.906;2023-04-25T01:43:08;13.50;;;3.20;;
70369;SDS011;57790;51.356;-2.906;2023-04-25T01:46:12;9.73;;;2.20;;
70369;SDS011;57790;51.356;-2.906;2023-04-25T01:49:12;10.45;;;2.45;;
70369;SDS011;57790;51.356;-2.906;2023-04-25T01:52:13;9.23;;;2.10;;
70369;SDS011;57790;51.356;-2.906;2023-04-25T01:55:13;10.00;;;2.37;;
70369;SDS011;57790;51.356;-2.906;2023-04-25T01:58:14;11.90;;;2.55;;
70369;SDS011;57790;51.356;-2.906;2023-04-25T02:01:15;10.30;;;2.37;;
70369;SDS011;57790;51.356;-2.906;2023-04-25T02:04:15;9.05;;;2.35;;
70369;SDS011;57790;51.356;-2.906;2023-04-25T02:07:16;8.23;;;2.27;;
70369;SDS011;57790;51.356;-2.906;2023-04-25T02:10:16;9.67;;;2.37;;
70369;SDS011;57790;51.356;-2.906;2023-04-25T02:13:16;11.10;;;2.33;;
70369;SDS011;57790;51.356;-2.906;2023-04-25T02:16:17;8.30;;;2.40;;
70369;SDS011;57790;51.356;-2.906;2023-04-25T02:19:18;7.82;;;2.30;;
70369;SDS011;57790;51.356;-2.906;2023-04-25T02:22:18;8.20;;;2.20;;
70369;SDS011;57790;51.356;-2.906;2023-04-25T02:25:19;7.97;;;2.13;;
70369;SDS011;57790;51.356;-2.906;2023-04-25T02:28:20;9.75;;;2.50;;
70369;SDS011;57790;51.356;-2.906;2023-04-25T02:31:20;8.80;;;2.27;;
70369;SDS011;57790;51.356;-2.906;2023-04-25T02:34:21;8.90;;;2.37;;
70369;SDS011;57790;51.356;-2.906;2023-04-25T02:37:21;9.23;;;2.42;;
70369;SDS011;57790;51.356;-2.906;2023-04-25T02:40:21;8.63;;;2.40;;
70369;SDS011;57790;51.356;-2.906;2023-04-25T02:43:22;10.57;;;2.30;;
70369;SDS011;57790;51.356;-2.906;2023-04-25T02:46:22;9.93;;;2.30;;
70369;SDS011;57790;51.356;-2.906;2023-04-25T02:49:23;9.80;;;2.37;;
70369;SDS011;57790;51.356;-2.906;2023-04-25T02:52:23;8.57;;;2.17;;
70369;SDS011;57790;51.356;-2.906;2023-04-25T02:55:24;11.37;;;2.10;;
70369;SDS011;57790;51.356;-2.906;2023-04-25T02:58:26;10.65;;;2.10;;
70369;SDS011;57790;51.356;-2.906;2023-04-25T03:01:26;9.07;;;2.07;;
70369;SDS011;57790;51.356;-2.906;2023-04-25T03:04:26;7.83;;;2.00;;
70369;SDS011;57790;51.356;-2.906;2023-04-25T03:07:27;6.90;;;1.95;;
70369;SDS011;57790;51.356;-2.906;2023-04-25T03:10:27;8.13;;;2.10;;
70369;SDS011;57790;51.356;-2.906;2023-04-25T03:13:27;7.80;;;2.07;;
70369;SDS011;57790;51.356;-2.906;2023-04-25T03:16:29;7.78;;;1.90;;
70369;SDS011;57790;51.356;-2.906;2023-04-25T03:19:30;8.63;;;2.00;;
70369;SDS011;57790;51.356;-2.906;2023-04-25T03:22:31;8.32;;;1.77;;
70369;SDS011;57790;51.356;-2.906;2023-04-25T03:25:31;7.77;;;1.80;;
70369;SDS011;57790;51.356;-2.906;2023-04-25T03:28:31;7.27;;;1.53;;
70369;SDS011;57790;51.356;-2.906;2023-04-25T03:31:32;8.03;;;1.70;;
70369;SDS011;57790;51.356;-2.906;2023-04-25T03:34:32;6.57;;;1.90;;
70369;SDS011;57790;51.356;-2.906;2023-04-25T03:37:33;7.03;;;1.60;;
70369;SDS011;57790;51.356;-2.906;2023-04-25T03:40:33;8.50;;;1.73;;
70369;SDS011;57790;51.356;-2.906;2023-04-25T03:43:34;8.50;;;1.83;;
70369;SDS011;57790;51.356;-2.906;2023-04-25T03:46:34;7.80;;;1.57;;
70369;SDS011;57790;51.356;-2.906;2023-04-25T03:49:35;6.10;;;1.50;;
70369;SDS011;57790;51.356;-2.906;2023-04-25T03:52:36;7.45;;;1.60;;
70369;SDS011;57790;51.356;-2.906;2023-04-25T03:55:36;9.37;;;2.00;;
70369;SDS011;57790;51.356;-2.906;2023-04-25T03:58:36;8.13;;;1.90;;
70369;SDS011;57790;51.356;-2.906;2023-04-25T04:01:37;6.20;;;1.40;;
70369;SDS011;57790;51.356;-2.906;2023-04-25T04:04:37;9.05;;;1.88;;
70369;SDS011;57790;51.356;-2.906;2023-04-25T04:07:37;7.13;;;1.67;;
70369;SDS011;57790;51.356;-2.906;2023-04-25T04:10:40;7.20;;;1.50;;
70369;SDS011;57790;51.356;-2.906;2023-04-25T04:13:40;6.60;;;1.57;;
70369;SDS011;57790;51.356;-2.906;2023-04-25T04:16:40;7.27;;;1.57;;
70369;SDS011;57790;51.356;-2.906;2023-04-25T04:19:41;8.60;;;1.60;;
70369;SDS011;57790;51.356;-2.906;2023-04-25T04:22:42;6.60;;;1.77;;
70369;SDS011;57790;51.356;-2.906;2023-04-25T04:25:42;7.10;;;1.50;;
70369;SDS011;57790;51.356;-2.906;2023-04-25T04:28:43;8.00;;;1.80;;
70369;SDS011;57790;51.356;-2.906;2023-04-25T04:31:47;7.32;;;1.83;;
70369;SDS011;57790;51.356;-2.906;2023-04-25T04:34:49;7.15;;;1.55;;
70369;SDS011;57790;51.356;-2.906;2023-04-25T04:37:49;8.10;;;2.10;;
70369;SDS011;57790;51.356;-2.906;2023-04-25T04:40:50;6.60;;;1.75;;
70369;SDS011;57790;51.356;-2.906;2023-04-25T04:43:52;8.05;;;1.95;;
70369;SDS011;57790;51.356;-2.906;2023-04-25T04:46:53;7.33;;;1.97;;
70369;SDS011;57790;51.356;-2.906;2023-04-25T04:49:53;7.93;;;1.80;;
70369;SDS011;57790;51.356;-2.906;2023-04-25T04:52:53;9.40;;;2.00;;
70369;SDS011;57790;51.356;-2.906;2023-04-25T04:55:55;6.83;;;2.00;;
70369;SDS011;57790;51.356;-2.906;2023-04-25T04:58:55;9.35;;;2.75;;
70369;SDS011;57790;51.356;-2.906;2023-04-25T05:01:56;7.97;;;2.20;;
70369;SDS011;57790;51.356;-2.906;2023-04-25T05:04:56;7.80;;;2.27;;
70369;SDS011;57790;51.356;-2.906;2023-04-25T05:07:56;12.10;;;2.40;;
70369;SDS011;57790;51.356;-2.906;2023-04-25T05:10:57;8.63;;;2.23;;
70369;SDS011;57790;51.356;-2.906;2023-04-25T05:13:57;7.47;;;2.00;;
70369;SDS011;57790;51.356;-2.906;2023-04-25T05:16:58;8.30;;;2.17;;
70369;SDS011;57790;51.356;-2.906;2023-04-25T05:19:58;8.95;;;1.90;;
70369;SDS011;57790;51.356;-2.906;2023-04-25T05:22:58;6.73;;;1.90;;
70369;SDS011;57790;51.356;-2.906;2023-04-25T05:26:00;8.73;;;2.00;;
70369;SDS011;57790;51.356;-2.906;2023-04-25T05:29:00;10.47;;;2.37;;
70369;SDS011;57790;51.356;-2.906;2023-04-25T05:32:01;8.20;;;2.23;;
70369;SDS011;57790;51.356;-2.906;2023-04-25T05:35:01;9.33;;;1.97;;
70369;SDS011;57790;51.356;-2.906;2023-04-25T05:38:02;8.65;;;2.05;;
70369;SDS011;57790;51.356;-2.906;2023-04-25T05:41:03;10.60;;;2.00;;
70369;SDS011;57790;51.356;-2.906;2023-04-25T05:44:03;7.67;;;1.77;;
70369;SDS011;57790;51.356;-2.906;2023-04-25T05:47:03;8.20;;;1.93;;
70369;SDS011;57790;51.356;-2.906;2023-04-25T05:50:05;7.47;;;2.23;;
70369;SDS011;57790;51.356;-2.906;2023-04-25T05:53:06;7.53;;;1.88;;
70369;SDS011;57790;51.356;-2.906;2023-04-25T05:56:06;7.87;;;1.50;;
70369;SDS011;57790;51.356;-2.906;2023-04-25T05:59:06;6.88;;;1.70;;
70369;SDS011;57790;51.356;-2.906;2023-04-25T06:02:07;7.87;;;1.67;;
70369;SDS011;57790;51.356;-2.906;2023-04-25T06:05:08;7.80;;;1.73;;
70369;SDS011;57790;51.356;-2.906;2023-04-25T06:08:09;8.50;;;1.65;;
70369;SDS011;57790;51.356;-2.906;2023-04-25T06:11:09;6.63;;;1.50;;
70369;SDS011;57790;51.356;-2.906;2023-04-25T06:14:10;8.00;;;1.90;;
70369;SDS011;57790;51.356;-2.906;2023-04-25T06:17:10;6.33;;;1.47;;
70369;SDS011;57790;51.356;-2.906;2023-04-25T06:20:11;6.70;;;1.70;;
70369;SDS011;57790;51.356;-2.906;2023-04-25T06:23:11;9.68;;;1.52;;
70369;SDS011;57790;51.356;-2.906;2023-04-25T06:26:12;7.00;;;1.67;;
70369;SDS011;57790;51.356;-2.906;2023-04-25T06:29:12;6.67;;;1.80;;
70369;SDS011;57790;51.356;-2.906;2023-04-25T06:32:13;8.17;;;1.70;;
70369;SDS011;57790;51.356;-2.906;2023-04-25T06:35:13;7.33;;;1.57;;
70369;SDS011;57790;51.356;-2.906;2023-04-25T06:38:13;6.82;;;1.90;;
70369;SDS011;57790;51.356;-2.906;2023-04-25T06:41:15;9.27;;;1.83;;
70369;SDS011;57790;51.356;-2.906;2023-04-25T06:44:15;10.70;;;1.80;;
70369;SDS011;57790;51.356;-2.906;2023-04-25T06:47:16;8.57;;;1.77;;
70369;SDS011;57790;51.356;-2.906;2023-04-25T06:50:16;9.63;;;1.77;;
70369;SDS011;57790;51.356;-2.906;2023-04-25T06:53:17;8.90;;;2.03;;
70369;SDS011;57790;51.356;-2.906;2023-04-25T06:56:17;7.67;;;1.83;;
70369;SDS011;57790;51.356;-2.906;2023-04-25T06:59:17;6.40;;;1.57;;
70369;SDS011;57790;51.356;-2.906;2023-04-25T07:02:18;8.02;;;1.73;;
70369;SDS011;57790;51.356;-2.906;2023-04-25T07:05:18;8.03;;;1.80;;
70369;SDS011;57790;51.356;-2.906;2023-04-25T07:08:18;5.73;;;1.53;;
70369;SDS011;57790;51.356;-2.906;2023-04-25T07:11:20;9.73;;;2.08;;
70369;SDS011;57790;51.356;-2.906;2023-04-25T07:14:20;7.63;;;1.90;;
70369;SDS011;57790;51.356;-2.906;2023-04-25T07:17:21;7.07;;;1.47;;
70369;SDS011;57790;51.356;-2.906;2023-04-25T07:20:21;6.50;;;1.60;;
70369;SDS011;57790;51.356;-2.906;2023-04-25T07:23:22;8.23;;;1.63;;
70369;SDS011;57790;51.356;-2.906;2023-04-25T07:26:22;5.45;;;1.55;;
70369;SDS011;57790;51.356;-2.906;2023-04-25T07:29:23;6.83;;;1.60;;
70369;SDS011;57790;51.356;-2.906;2023-04-25T07:32:24;7.20;;;1.30;;
70369;SDS011;57790;51.356;-2.906;2023-04-25T07:35:25;7.60;;;1.90;;
70369;SDS011;57790;51.356;-2.906;2023-04-25T07:38:26;5.43;;;1.20;;
70369;SDS011;57790;51.356;-2.906;2023-04-25T07:41:26;6.10;;;1.20;;
70369;SDS011;57790;51.356;-2.906;2023-04-25T07:44:26;5.87;;;1.20;;
70369;SDS011;57790;51.356;-2.906;2023-04-25T07:47:27;5.40;;;1.30;;
70369;SDS011;57790;51.356;-2.906;2023-04-25T07:50:27;6.83;;;1.23;;
70369;SDS011;57790;51.356;-2.906;2023-04-25T07:53:27;7.07;;;1.30;;
70369;SDS011;57790;51.356;-2.906;2023-04-25T07:56:28;6.30;;;1.33;;
70369;SDS011;57790;51.356;-2.906;2023-04-25T07:59:28;9.77;;;1.30;;
70369;SDS011;57790;51.356;-2.906;2023-04-25T08:02:29;4.38;;;1.10;;
70369;SDS011;57790;51.356;-2.906;2023-04-25T08:05:29;5.20;;;1.10;;
70369;SDS011;57790;51.356;-2.906;2023-04-25T08:08:30;6.03;;;1.30;;
70369;SDS011;57790;51.356;-2.906;2023-04-25T08:11:30;6.57;;;1.10;;
70369;SDS011;57790;51.356;-2.906;2023-04-25T08:14:31;7.90;;;1.23;;
70369;SDS011;57790;51.356;-2.906;2023-04-25T08:17:35;8.57;;;1.30;;
70369;SDS011;57790;51.356;-2.906;2023-04-25T08:20:36;9.80;;;1.30;;
70369;SDS011;57790;51.356;-2.906;2023-04-25T08:23:37;8.80;;;1.20;;
70369;SDS011;57790;51.356;-2.906;2023-04-25T08:26:37;8.23;;;1.10;;
70369;SDS011;57790;51.356;-2.906;2023-04-25T08:29:38;5.67;;;1.20;;
70369;SDS011;57790;51.356;-2.906;2023-04-25T08:32:39;7.65;;;1.20;;
70369;SDS011;57790;51.356;-2.906;2023-04-25T08:35:39;12.17;;;1.57;;
70369;SDS011;57790;51.356;-2.906;2023-04-25T08:38:40;7.00;;;1.37;;
70369;SDS011;57790;51.356;-2.906;2023-04-25T08:41:40;8.00;;;1.57;;
70369;SDS011;57790;51.356;-2.906;2023-04-25T08:44:41;5.28;;;1.00;;
70369;SDS011;57790;51.356;-2.906;2023-04-25T08:47:42;7.22;;;1.15;;
70369;SDS011;57790;51.356;-2.906;2023-04-25T08:50:48;9.23;;;1.23;;
70369;SDS011;57790;51.356;-2.906;2023-04-25T08:53:51;3.92;;;0.90;;
70369;SDS011;57790;51.356;-2.906;2023-04-25T08:56:54;4.38;;;1.13;;
70369;SDS011;57790;51.356;-2.906;2023-04-25T08:59:55;5.40;;;1.00;;
70369;SDS011;57790;51.356;-2.906;2023-04-25T09:02:58;8.00;;;1.30;;
70369;SDS011;57790;51.356;-2.906;2023-04-25T09:05:59;5.53;;;0.93;;
70369;SDS011;57790;51.356;-2.906;2023-04-25T09:09:06;4.78;;;1.10;;
70369;SDS011;57790;51.356;-2.906;2023-04-25T09:12:08;4.65;;;1.02;;
70369;SDS011;57790;51.356;-2.906;2023-04-25T09:15:12;8.50;;;1.00;;
70369;SDS011;57790;51.356;-2.906;2023-04-25T09:18:13;3.55;;;0.80;;
70369;SDS011;57790;51.356;-2.906;2023-04-25T09:21:13;7.97;;;0.90;;
70369;SDS011;57790;51.356;-2.906;2023-04-25T09:24:14;4.80;;;0.82;;
70369;SDS011;57790;51.356;-2.906;2023-04-25T09:27:18;5.60;;;1.00;;
70369;SDS011;57790;51.356;-2.906;2023-04-25T09:30:28;7.07;;;0.98;;
70369;SDS011;57790;51.356;-2.906;2023-04-25T09:33:31;6.32;;;1.00;;
70369;SDS011;57790;51.356;-2.906;2023-04-25T09:36:32;4.23;;;0.97;;
70369;SDS011;57790;51.356;-2.906;2023-04-25T09:39:34;4.30;;;0.87;;
70369;SDS011;57790;51.356;-2.906;2023-04-25T09:42:35;4.65;;;0.80;;
70369;SDS011;57790;51.356;-2.906;2023-04-25T09:45:40;7.17;;;1.00;;
70369;SDS011;57790;51.356;-2.906;2023-04-25T09:48:47;2.93;;;0.60;;
70369;SDS011;57790;51.356;-2.906;2023-04-25T09:51:56;5.67;;;0.93;;
70369;SDS011;57790;51.356;-2.906;2023-04-25T09:54:57;4.80;;;0.90;;
70369;SDS011;57790;51.356;-2.906;2023-04-25T09:57:57;4.53;;;0.73;;
70369;SDS011;57790;51.356;-2.906;2023-04-25T10:01:06;5.22;;;0.70;;
70369;SDS011;57790;51.356;-2.906;2023-04-25T10:04:10;4.15;;;0.80;;
70369;SDS011;57790;51.356;-2.906;2023-04-25T10:07:11;7.80;;;1.15;;
70369;SDS011;57790;51.356;-2.906;2023-04-25T10:10:12;7.03;;;0.83;;
70369;SDS011;57790;51.356;-2.906;2023-04-25T10:13:13;5.80;;;0.98;;
70369;SDS011;57790;51.356;-2.906;2023-04-25T10:16:14;6.57;;;0.70;;
70369;SDS011;57790;51.356;-2.906;2023-04-25T10:19:16;6.70;;;0.77;;
70369;SDS011;57790;51.356;-2.906;2023-04-25T10:22:18;4.32;;;0.70;;
70369;SDS011;57790;51.356;-2.906;2023-04-25T10:25:26;5.30;;;0.90;;
70369;SDS011;57790;51.356;-2.906;2023-04-25T10:28:26;2.90;;;0.60;;
70369;SDS011;57790;51.356;-2.906;2023-04-25T10:31:31;5.95;;;0.90;;
70369;SDS011;57790;51.356;-2.906;2023-04-25T10:34:42;4.07;;;0.80;;
70369;SDS011;57790;51.356;-2.906;2023-04-25T10:37:56;4.90;;;0.90;;
70369;SDS011;57790;51.356;-2.906;2023-04-25T10:41:09;5.40;;;0.83;;
70369;SDS011;57790;51.356;-2.906;2023-04-25T10:44:11;5.40;;;0.85;;
70369;SDS011;57790;51.356;-2.906;2023-04-25T10:47:11;8.20;;;0.77;;
70369;SDS011;57790;51.356;-2.906;2023-04-25T10:50:13;4.90;;;0.80;;
70369;SDS011;57790;51.356;-2.906;2023-04-25T10:53:15;3.70;;;0.80;;
70369;SDS011;57790;51.356;-2.906;2023-04-25T10:56:19;4.57;;;0.77;;
70369;SDS011;57790;51.356;-2.906;2023-04-25T10:59:22;4.40;;;0.73;;
70369;SDS011;57790;51.356;-2.906;2023-04-25T11:02:28;4.13;;;0.70;;
70369;SDS011;57790;51.356;-2.906;2023-04-25T11:05:32;4.85;;;0.80;;
70369;SDS011;57790;51.356;-2.906;2023-04-25T11:08:44;5.63;;;0.90;;
70369;SDS011;57790;51.356;-2.906;2023-04-25T11:11:55;5.22;;;0.80;;
70369;SDS011;57790;51.356;-2.906;2023-04-25T11:15:00;5.05;;;1.23;;
70369;SDS011;57790;51.356;-2.906;2023-04-25T11:18:01;3.87;;;0.80;;
70369;SDS011;57790;51.356;-2.906;2023-04-25T11:21:02;4.57;;;0.93;;
70369;SDS011;57790;51.356;-2.906;2023-04-25T11:24:02;4.87;;;0.70;;
70369;SDS011;57790;51.356;-2.906;2023-04-25T11:27:04;3.37;;;0.90;;
70369;SDS011;57790;51.356;-2.906;2023-04-25T11:30:12;4.05;;;0.88;;
70369;SDS011;57790;51.356;-2.906;2023-04-25T11:33:13;4.90;;;0.90;;
70369;SDS011;57790;51.356;-2.906;2023-04-25T11:36:14;4.47;;;0.93;;
70369;SDS011;57790;51.356;-2.906;2023-04-25T11:39:14;5.72;;;0.80;;
70369;SDS011;57790;51.356;-2.906;2023-04-25T11:42:15;3.63;;;0.53;;
70369;SDS011;57790;51.356;-2.906;2023-04-25T11:45:15;3.70;;;0.70;;
70369;SDS011;57790;51.356;-2.906;2023-04-25T11:48:16;3.25;;;0.57;;
70369;SDS011;57790;51.356;-2.906;2023-04-25T11:51:17;4.57;;;0.77;;
70369;SDS011;57790;51.356;-2.906;2023-04-25T11:54:17;3.42;;;0.60;;
70369;SDS011;57790;51.356;-2.906;2023-04-25T11:57:21;3.80;;;0.70;;
70369;SDS011;57790;51.356;-2.906;2023-04-25T12:00:21;4.75;;;0.80;;
70369;SDS011;57790;51.356;-2.906;2023-04-25T12:03:22;2.33;;;0.53;;
70369;SDS011;57790;51.356;-2.906;2023-04-25T12:06:29;4.07;;;0.70;;
70369;SDS011;57790;51.356;-2.906;2023-04-25T12:09:31;3.53;;;1.00;;
70369;SDS011;57790;51.356;-2.906;2023-04-25T12:12:32;4.32;;;0.70;;
70369;SDS011;57790;51.356;-2.906;2023-04-25T12:15:33;2.60;;;0.70;;
70369;SDS011;57790;51.356;-2.906;2023-04-25T12:18:35;3.90;;;0.80;;
70369;SDS011;57790;51.356;-2.906;2023-04-25T12:21:36;6.88;;;0.90;;
70369;SDS011;57790;51.356;-2.906;2023-04-25T12:24:36;4.43;;;1.10;;
70369;SDS011;57790;51.356;-2.906;2023-04-25T12:27:36;3.57;;;0.80;;
70369;SDS011;57790;51.356;-2.906;2023-04-25T12:33:57;5.43;;;0.90;;
70369;SDS011;57790;51.356;-2.906;2023-04-25T12:36:58;3.35;;;0.68;;
70369;SDS011;57790;51.356;-2.906;2023-04-25T12:39:58;3.87;;;0.70;;
70369;SDS011;57790;51.356;-2.906;2023-04-25T12:42:59;4.07;;;0.80;;
70369;SDS011;57790;51.356;-2.906;2023-04-25T12:45:59;3.87;;;0.70;;
70369;SDS011;57790;51.356;-2.906;2023-04-25T12:48:59;4.03;;;0.80;;
70369;SDS011;57790;51.356;-2.906;2023-04-25T12:52:00;3.83;;;0.60;;
70369;SDS011;57790;51.356;-2.906;2023-04-25T12:55:00;4.95;;;0.90;;
70369;SDS011;57790;51.356;-2.906;2023-04-25T12:58:01;3.97;;;0.97;;
70369;SDS011;57790;51.356;-2.906;2023-04-25T13:01:02;3.83;;;0.70;;
70369;SDS011;57790;51.356;-2.906;2023-04-25T13:04:03;5.70;;;0.90;;
70369;SDS011;57790;51.356;-2.906;2023-04-25T13:07:04;4.50;;;0.70;;
70369;SDS011;57790;51.356;-2.906;2023-04-25T13:10:05;4.03;;;0.68;;
70369;SDS011;57790;51.356;-2.906;2023-04-25T13:13:06;3.22;;;0.90;;
70369;SDS011;57790;51.356;-2.906;2023-04-25T13:16:07;3.97;;;1.20;;
70369;SDS011;57790;51.356;-2.906;2023-04-25T13:19:07;2.33;;;0.70;;
70369;SDS011;57790;51.356;-2.906;2023-04-25T13:22:10;4.40;;;0.70;;
70369;SDS011;57790;51.356;-2.906;2023-04-25T13:25:11;3.87;;;0.90;;
70369;SDS011;57790;51.356;-2.906;2023-04-25T13:28:11;4.53;;;0.80;;
70369;SDS011;57790;51.356;-2.906;2023-04-25T13:31:12;5.80;;;0.80;;
70369;SDS011;57790;51.356;-2.906;2023-04-25T13:34:12;5.93;;;0.80;;
70369;SDS011;57790;51.356;-2.906;2023-04-25T13:37:13;4.22;;;0.90;;
70369;SDS011;57790;51.356;-2.906;2023-04-25T13:40:13;5.43;;;0.80;;
70369;SDS011;57790;51.356;-2.906;2023-04-25T13:43:14;5.23;;;0.70;;
70369;SDS011;57790;51.356;-2.906;2023-04-25T13:46:14;4.77;;;0.90;;
70369;SDS011;57790;51.356;-2.906;2023-04-25T13:49:15;4.20;;;0.85;;
70369;SDS011;57790;51.356;-2.906;2023-04-25T13:52:16;4.30;;;1.00;;
70369;SDS011;57790;51.356;-2.906;2023-04-25T13:55:16;3.53;;;0.70;;
70369;SDS011;57790;51.356;-2.906;2023-04-25T13:58:17;2.90;;;0.70;;
70369;SDS011;57790;51.356;-2.906;2023-04-25T14:01:17;3.83;;;0.90;;
70369;SDS011;57790;51.356;-2.906;2023-04-25T14:04:18;6.07;;;0.82;;
70369;SDS011;57790;51.356;-2.906;2023-04-25T14:07:19;4.00;;;0.80;;
70369;SDS011;57790;51.356;-2.906;2023-04-25T14:10:20;4.45;;;0.85;;
70369;SDS011;57790;51.356;-2.906;2023-04-25T14:13:21;3.80;;;0.70;;
70369;SDS011;57790;51.356;-2.906;2023-04-25T14:16:23;3.60;;;0.70;;
70369;SDS011;57790;51.356;-2.906;2023-04-25T14:19:23;4.33;;;0.80;;
70369;SDS011;57790;51.356;-2.906;2023-04-25T14:22:24;3.70;;;0.70;;
70369;SDS011;57790;51.356;-2.906;2023-04-25T14:25:25;3.90;;;0.70;;
70369;SDS011;57790;51.356;-2.906;2023-04-25T14:28:26;5.05;;;0.88;;
70369;SDS011;57790;51.356;-2.906;2023-04-25T14:31:26;3.47;;;0.60;;
70369;SDS011;57790;51.356;-2.906;2023-04-25T14:34:27;4.20;;;0.73;;
70369;SDS011;57790;51.356;-2.906;2023-04-25T14:37:27;4.73;;;0.83;;
70369;SDS011;57790;51.356;-2.906;2023-04-25T14:40:28;2.80;;;0.70;;
70369;SDS011;57790;51.356;-2.906;2023-04-25T14:43:28;3.57;;;0.80;;
70369;SDS011;57790;51.356;-2.906;2023-04-25T14:46:28;3.80;;;0.97;;
70369;SDS011;57790;51.356;-2.906;2023-04-25T14:49:29;5.77;;;1.00;;
70369;SDS011;57790;51.356;-2.906;2023-04-25T14:52:29;4.50;;;0.80;;
70369;SDS011;57790;51.356;-2.906;2023-04-25T14:55:31;3.75;;;0.70;;
70369;SDS011;57790;51.356;-2.906;2023-04-25T14:58:31;5.00;;;1.00;;
70369;SDS011;57790;51.356;-2.906;2023-04-25T15:01:32;3.73;;;0.87;;
70369;SDS011;57790;51.356;-2.906;2023-04-25T15:04:32;3.57;;;0.90;;
70369;SDS011;57790;51.356;-2.906;2023-04-25T15:07:33;4.30;;;0.85;;
70369;SDS011;57790;51.356;-2.906;2023-04-25T15:10:34;5.93;;;1.10;;
70369;SDS011;57790;51.356;-2.906;2023-04-25T15:13:34;4.90;;;1.00;;
70369;SDS011;57790;51.356;-2.906;2023-04-25T15:16:35;5.60;;;1.10;;
70369;SDS011;57790;51.356;-2.906;2023-04-25T15:19:35;3.87;;;0.80;;
70369;SDS011;57790;51.356;-2.906;2023-04-25T15:22:36;3.83;;;0.90;;
70369;SDS011;57790;51.356;-2.906;2023-04-25T15:25:38;4.40;;;1.02;;
70369;SDS011;57790;51.356;-2.906;2023-04-25T15:28:38;4.63;;;1.10;;
70369;SDS011;57790;51.356;-2.906;2023-04-25T15:31:39;3.87;;;0.83;;
70369;SDS011;57790;51.356;-2.906;2023-04-25T15:34:40;4.95;;;0.82;;
70369;SDS011;57790;51.356;-2.906;2023-04-25T15:37:40;3.90;;;0.80;;
70369;SDS011;57790;51.356;-2.906;2023-04-25T15:40:41;5.43;;;1.00;;
70369;SDS011;57790;51.356;-2.906;2023-04-25T15:43:41;5.17;;;0.83;;
70369;SDS011;57790;51.356;-2.906;2023-04-25T15:46:41;5.20;;;0.73;;
70369;SDS011;57790;51.356;-2.906;2023-04-25T15:49:43;4.20;;;0.80;;
70369;SDS011;57790;51.356;-2.906;2023-04-25T15:52:43;3.20;;;0.80;;
70369;SDS011;57790;51.356;-2.906;2023-04-25T15:55:44;3.27;;;0.73;;
70369;SDS011;57790;51.356;-2.906;2023-04-25T15:58:44;3.00;;;0.70;;
70369;SDS011;57790;51.356;-2.906;2023-04-25T16:01:45;4.07;;;0.83;;
70369;SDS011;57790;51.356;-2.906;2023-04-25T16:04:45;2.70;;;0.80;;
70369;SDS011;57790;51.356;-2.906;2023-04-25T16:07:46;4.82;;;0.77;;
70369;SDS011;57790;51.356;-2.906;2023-04-25T16:10:46;3.93;;;0.90;;
70369;SDS011;57790;51.356;-2.906;2023-04-25T16:13:47;3.40;;;0.90;;
70369;SDS011;57790;51.356;-2.906;2023-04-25T16:16:48;4.40;;;0.80;;
70369;SDS011;57790;51.356;-2.906;2023-04-25T16:19:49;3.63;;;1.02;;
70369;SDS011;57790;51.356;-2.906;2023-04-25T16:22:49;4.53;;;0.93;;
70369;SDS011;57790;51.356;-2.906;2023-04-25T16:25:50;3.67;;;1.00;;
70369;SDS011;57790;51.356;-2.906;2023-04-25T16:28:50;2.85;;;0.80;;
70369;SDS011;57790;51.356;-2.906;2023-04-25T16:31:51;3.87;;;0.90;;
70369;SDS011;57790;51.356;-2.906;2023-04-25T16:34:51;3.33;;;0.80;;
70369;SDS011;57790;51.356;-2.906;2023-04-25T16:37:52;5.57;;;0.87;;
70369;SDS011;57790;51.356;-2.906;2023-04-25T16:40:52;3.73;;;0.80;;
70369;SDS011;57790;51.356;-2.906;2023-04-25T16:43:53;3.10;;;0.80;;
70369;SDS011;57790;51.356;-2.906;2023-04-25T16:46:53;2.65;;;0.60;;
70369;SDS011;57790;51.356;-2.906;2023-04-25T16:49:54;2.90;;;0.80;;
70369;SDS011;57790;51.356;-2.906;2023-04-25T16:52:54;3.17;;;0.87;;
70369;SDS011;57790;51.356;-2.906;2023-04-25T16:55:55;3.47;;;0.80;;
70369;SDS011;57790;51.356;-2.906;2023-04-25T16:58:55;4.35;;;0.90;;
70369;SDS011;57790;51.356;-2.906;2023-04-25T17:01:56;3.33;;;0.70;;
70369;SDS011;57790;51.356;-2.906;2023-04-25T17:04:57;3.17;;;0.80;;
70369;SDS011;57790;51.356;-2.906;2023-04-25T17:07:58;3.83;;;0.90;;
70369;SDS011;57790;51.356;-2.906;2023-04-25T17:10:59;3.77;;;0.90;;
70369;SDS011;57790;51.356;-2.906;2023-04-25T17:13:59;5.32;;;1.00;;
70369;SDS011;57790;51.356;-2.906;2023-04-25T17:17:00;4.33;;;0.70;;
70369;SDS011;57790;51.356;-2.906;2023-04-25T17:20:00;4.50;;;0.90;;
70369;SDS011;57790;51.356;-2.906;2023-04-25T17:23:00;4.07;;;1.20;;
70369;SDS011;57790;51.356;-2.906;2023-04-25T17:26:02;4.10;;;0.90;;
70369;SDS011;57790;51.356;-2.906;2023-04-25T17:29:02;5.23;;;0.90;;
70369;SDS011;57790;51.356;-2.906;2023-04-25T17:32:03;4.85;;;1.05;;
70369;SDS011;57790;51.356;-2.906;2023-04-25T17:35:04;4.47;;;0.90;;
70369;SDS011;57790;51.356;-2.906;2023-04-25T17:38:05;4.53;;;1.02;;
70369;SDS011;57790;51.356;-2.906;2023-04-25T17:41:07;5.17;;;1.00;;
70369;SDS011;57790;51.356;-2.906;2023-04-25T17:44:09;3.43;;;1.00;;
70369;SDS011;57790;51.356;-2.906;2023-04-25T17:47:09;4.00;;;0.87;;
70369;SDS011;57790;51.356;-2.906;2023-04-25T17:50:10;6.57;;;1.10;;
70369;SDS011;57790;51.356;-2.906;2023-04-25T17:53:11;4.07;;;0.82;;
70369;SDS011;57790;51.356;-2.906;2023-04-25T17:56:12;4.03;;;1.10;;